Hisega, South Dakota
Current Conditions -  °F | °C
As of 8:58 PM on Tuesday 25 Nov 2014 (Local Time) from KRCA Reporting Station
Scattered Clouds Scattered Clouds  
Wind Chill: 20°   Ceiling: Unl
Heat Index: 33°   Visibility: 10mi
Dew Point: 24°   Wind: 23mph
Humidity: 70%   Direction: 330°NNW
Pressure: 29.94"   Gusts: 39mph
Location:  44.07°N, 103.324°W
Report Text: KRCA 260358Z 33020G34KT 10SM SCT060 00/M05 A2994 RMK AO2A PK WND 33034/47 SLP171 T00031046 $
Loading
Personal Weather Stations






























Interactive Weather Map New forecast layout! Learn more

10-Day Weather Forecast

Advertisements
Track Severe Weather on mobile